KLAL

Lakeland Linder Regional Airport

Lakeland, Florida, USA
METAR KLAL 222053Z 06008G17KT 10SM SCT060 28/13 A3011
Observed Flight Rules
Oct-22 @ 20:53 UTC (51 minutes ago) Visual Flight Rules
Wind Visibility Clouds
60° at 8 knots
 Gusting to 17 knots
10 miles
  • Scattered at 6,000' AGL
Temperatures Readings
Current 28°C / 82°F
Dewpoint 13°C / 55°F
Humidity 40%
Altimeter 30.11" Hg
Pressure 1020 hPa
Elevation 43
METAR KLAL 222053Z 06008G17KT 10SM SCT060 28/13 A3011
Observed Flight Rules
Oct-22 @ 20:53 UTC
(51 minutes ago)
VFR
Wind Visibility
60° at 8 knots
 Gusting to 17 knots
10 miles
Clouds
  • Scattered at 6,000' AGL
Temperature Dewpoint
28°C / 82°F 13°C / 55°F
Humidity Altimeter Pressure
40% 30.11" Hg 1020 hPa